TAF Text Data
IDs:
Format:
Raw Decoded Include METAR

Data at: 0826 UTC 27 Feb 2020

KEET 270520Z 2706/2806 33010G20KT P6SM -SHSN OVC040
  FM271500 32009KT P6SM FEW250
  FM280000 25003KT P6SM SKC